Time;durP1;ratioP1;P1;durP2;ratioP2;P2;SDS_P1;SDS_P2;PMS_P1;PMS_P2;Temp;Humidity;BMP_temperature;BMP_pressure;BME280_temperature;BME280_humidity;BME280_pressure;Samples;Min_cycle;Max_cycle;Signal;HPM_P1;HPM_P2
2021/08/14 00:01:12;;;;;;;7.80;6.85;;;;;;;;;;5113565;28;20027;-61
2021/08/14 00:03:38;;;;;;;9.30;7.18;;;;;;;;;;5113493;28;20039;-61
2021/08/14 00:06:03;;;;;;;8.65;6.78;;;;;;;;;;5113393;28;20449;-61
2021/08/14 00:08:28;;;;;;;9.73;7.45;;;;;;;;;;5113382;28;20102;-61
2021/08/14 00:10:54;;;;;;;8.48;6.97;;;;;;;;;;5117149;28;20039;-61
2021/08/14 00:13:19;;;;;;;7.60;6.90;;;;;;;;;;5117658;28;20027;-61
2021/08/14 00:15:45;;;;;;;8.23;6.72;;;;;;;;;;5117478;28;20053;-60
2021/08/14 00:18:10;;;;;;;8.00;7.20;;;;;;;;;;5117365;28;20015;-61
2021/08/14 00:20:36;;;;;;;7.63;6.82;;;;;;;;;;5117400;28;20024;-61
2021/08/14 00:23:01;;;;;;;8.70;6.75;;;;;;;;;;5116236;28;20033;-61
2021/08/14 00:25:27;;;;;;;7.45;6.65;;;;;;;;;;5115985;28;20039;-61
2021/08/14 00:27:53;;;;;;;7.10;6.47;;;;;;;;;;5117290;28;20473;-61
2021/08/14 00:30:18;;;;;;;6.95;6.32;;;;;;;;;;5117274;28;20024;-61
2021/08/14 00:32:44;;;;;;;7.15;6.50;;;;;;;;;;5117238;28;20510;-60
2021/08/14 00:35:10;;;;;;;7.72;6.95;;;;;;;;;;5116831;28;20035;-61
2021/08/14 00:37:35;;;;;;;7.18;6.47;;;;;;;;;;5117088;28;20397;-60
2021/08/14 00:40:01;;;;;;;7.05;6.28;;;;;;;;;;5115831;28;20031;-61
2021/08/14 00:42:27;;;;;;;8.00;6.65;;;;;;;;;;5117018;27;20020;-61
2021/08/14 00:44:53;;;;;;;7.25;6.53;;;;;;;;;;5117078;28;20491;-61
2021/08/14 00:47:23;;;;;;;8.07;6.32;;;;;;;;;;5117038;27;20055;-61
2021/08/14 00:49:48;;;;;;;8.55;6.60;;;;;;;;;;5115861;28;20036;-60
2021/08/14 00:52:13;;;;;;;9.60;8.70;;;;;;;;;;5116851;28;20024;-61
2021/08/14 00:54:39;;;;;;;8.90;6.70;;;;;;;;;;5116794;28;20413;-61
2021/08/14 00:57:04;;;;;;;8.02;6.57;;;;;;;;;;5116678;28;20020;-61
2021/08/14 00:59:30;;;;;;;6.78;6.18;;;;;;;;;;5115555;28;20031;-61
2021/08/14 01:01:55;;;;;;;7.75;6.43;;;;;;;;;;5116811;28;20012;-61
2021/08/14 01:04:22;;;;;;;9.38;6.43;;;;;;;;;;5116626;28;20020;-61
2021/08/14 01:06:48;;;;;;;8.40;7.25;;;;;;;;;;5116529;28;20114;-61
2021/08/14 01:09:13;;;;;;;7.70;6.45;;;;;;;;;;5098271;28;20449;-60
2021/08/14 01:11:39;;;;;;;8.38;6.90;;;;;;;;;;5116433;28;20485;-61
2021/08/14 01:14:05;;;;;;;7.38;6.47;;;;;;;;;;5116288;28;20385;-61
2021/08/14 01:16:30;;;;;;;7.60;6.38;;;;;;;;;;5115154;28;20019;-61
2021/08/14 01:18:56;;;;;;;7.40;6.70;;;;;;;;;;5116357;28;20363;-61
2021/08/14 01:21:24;;;;;;;8.60;7.05;;;;;;;;;;5115517;28;20012;-61
2021/08/14 01:23:51;;;;;;;8.25;6.93;;;;;;;;;;5114970;28;20031;-61
2021/08/14 01:26:17;;;;;;;10.25;7.18;;;;;;;;;;5116302;28;20106;-61
2021/08/14 01:28:43;;;;;;;12.48;7.35;;;;;;;;;;5116107;28;20058;-60
2021/08/14 01:31:10;;;;;;;15.25;7.75;;;;;;;;;;5116074;28;20085;-60
2021/08/14 01:33:37;;;;;;;9.00;7.55;;;;;;;;;;5115969;28;20062;-60
2021/08/14 01:36:03;;;;;;;8.43;7.10;;;;;;;;;;5115615;28;20055;-61
2021/08/14 01:38:29;;;;;;;9.77;7.43;;;;;;;;;;5115890;28;20393;-61
2021/08/14 01:40:54;;;;;;;9.02;6.60;;;;;;;;;;5115907;28;20020;-61
2021/08/14 01:43:20;;;;;;;10.55;8.70;;;;;;;;;;5115833;28;20024;-60
2021/08/14 01:45:46;;;;;;;10.45;7.40;;;;;;;;;;5114557;28;20008;-61
2021/08/14 01:48:12;;;;;;;8.57;7.05;;;;;;;;;;5115766;28;20031;-61
2021/08/14 01:50:37;;;;;;;9.10;6.78;;;;;;;;;;5115698;28;20019;-61
2021/08/14 01:53:03;;;;;;;8.93;7.53;;;;;;;;;;5115547;28;20032;-61
2021/08/14 01:55:29;;;;;;;9.45;6.75;;;;;;;;;;5115746;28;20400;-61
2021/08/14 01:57:55;;;;;;;9.75;7.32;;;;;;;;;;5115580;28;20031;-61
2021/08/14 02:00:20;;;;;;;9.35;7.05;;;;;;;;;;5115569;28;20024;-60
2021/08/14 02:02:45;;;;;;;9.20;6.43;;;;;;;;;;5115444;28;20027;-61
2021/08/14 02:05:12;;;;;;;7.65;6.85;;;;;;;;;;5114229;28;20065;-61
2021/08/14 02:07:37;;;;;;;7.57;6.88;;;;;;;;;;5114133;28;20027;-61
2021/08/14 02:10:03;;;;;;;7.72;6.97;;;;;;;;;;5115426;28;20068;-61
2021/08/14 02:12:28;;;;;;;8.77;6.68;;;;;;;;;;5115292;28;20431;-61
2021/08/14 02:14:53;;;;;;;7.25;6.47;;;;;;;;;;5115243;28;20027;-61
2021/08/14 02:17:19;;;;;;;8.23;7.13;;;;;;;;;;5115117;28;20363;-61
2021/08/14 02:19:44;;;;;;;9.50;6.70;;;;;;;;;;5113888;28;20461;-61
2021/08/14 02:22:10;;;;;;;8.68;6.93;;;;;;;;;;5113555;28;20032;-61
2021/08/14 02:24:35;;;;;;;7.20;6.50;;;;;;;;;;5115167;27;20016;-61
2021/08/14 02:27:02;;;;;;;8.75;6.82;;;;;;;;;;5114949;28;20032;-61
2021/08/14 02:29:28;;;;;;;7.53;6.57;;;;;;;;;;5115050;28;20461;-61
2021/08/14 02:31:54;;;;;;;7.30;6.53;;;;;;;;;;5114984;28;20031;-60
2021/08/14 02:34:20;;;;;;;7.82;6.85;;;;;;;;;;5114865;27;20019;-61
2021/08/14 02:36:46;;;;;;;8.30;6.80;;;;;;;;;;5114398;28;20039;-61
2021/08/14 02:39:11;;;;;;;9.23;7.38;;;;;;;;;;5114680;28;20039;-60
2021/08/14 02:41:37;;;;;;;7.43;6.70;;;;;;;;;;5114616;28;20553;-60
2021/08/14 02:44:02;;;;;;;8.77;6.70;;;;;;;;;;5114659;28;20072;-60
2021/08/14 02:46:28;;;;;;;8.43;6.93;;;;;;;;;;5114673;28;20035;-61
2021/08/14 02:48:53;;;;;;;7.50;6.70;;;;;;;;;;5113382;28;20023;-61
2021/08/14 02:51:18;;;;;;;9.57;6.68;;;;;;;;;;5114561;28;20026;-61
2021/08/14 02:53:44;;;;;;;10.30;7.10;;;;;;;;;;5113260;28;20015;-61
2021/08/14 02:56:09;;;;;;;9.57;7.18;;;;;;;;;;5113083;28;20042;-61
2021/08/14 02:58:34;;;;;;;7.75;6.35;;;;;;;;;;5114318;28;20023;-61
2021/08/14 03:01:00;;;;;;;9.77;7.40;;;;;;;;;;5114351;28;20069;-61
2021/08/14 03:03:25;;;;;;;8.00;6.60;;;;;;;;;;5114376;28;20125;-61
2021/08/14 03:05:51;;;;;;;7.43;6.32;;;;;;;;;;5112990;28;20118;-61
2021/08/14 03:08:16;;;;;;;11.63;9.00;;;;;;;;;;5114180;28;20493;-61
2021/08/14 03:10:42;;;;;;;10.52;7.78;;;;;;;;;;5114175;28;20478;-60
2021/08/14 03:13:08;;;;;;;8.40;7.07;;;;;;;;;;5114177;28;20012;-61
2021/08/14 03:15:34;;;;;;;7.40;6.55;;;;;;;;;;5112638;28;20432;-61
2021/08/14 03:17:59;;;;;;;8.80;7.05;;;;;;;;;;5114058;28;20073;-61
2021/08/14 03:20:24;;;;;;;7.38;6.60;;;;;;;;;;5113904;28;20362;-61
2021/08/14 03:22:50;;;;;;;7.38;6.57;;;;;;;;;;5112786;28;20457;-61
2021/08/14 03:25:15;;;;;;;7.00;6.30;;;;;;;;;;5112750;28;20027;-61
2021/08/14 03:27:41;;;;;;;7.20;6.47;;;;;;;;;;5113944;28;20020;-60
2021/08/14 03:30:07;;;;;;;9.77;6.65;;;;;;;;;;5114004;28;20077;-61
2021/08/14 03:32:32;;;;;;;7.57;6.75;;;;;;;;;;5113908;28;20540;-61
2021/08/14 03:34:57;;;;;;;10.27;7.00;;;;;;;;;;5112689;28;20054;-61
2021/08/14 03:37:23;;;;;;;8.73;6.75;;;;;;;;;;5112448;28;20383;-61
2021/08/14 03:39:48;;;;;;;8.73;6.90;;;;;;;;;;5113940;28;20024;-61
2021/08/14 03:42:13;;;;;;;10.00;6.95;;;;;;;;;;5112540;28;20012;-61
2021/08/14 03:44:39;;;;;;;10.25;7.03;;;;;;;;;;5113298;28;20024;-61
2021/08/14 03:47:05;;;;;;;7.53;6.40;;;;;;;;;;5113745;28;20483;-61
2021/08/14 03:49:30;;;;;;;10.20;6.40;;;;;;;;;;5112317;28;20036;-60
2021/08/14 03:51:55;;;;;;;10.95;6.85;;;;;;;;;;5113506;28;20390;-61
2021/08/14 03:54:21;;;;;;;7.88;6.10;;;;;;;;;;5113498;28;20118;-61
2021/08/14 03:56:46;;;;;;;9.55;6.28;;;;;;;;;;5113589;28;20027;-61
2021/08/14 03:59:12;;;;;;;12.88;6.85;;;;;;;;;;5113609;28;20028;-61
2021/08/14 04:01:38;;;;;;;6.80;6.22;;;;;;;;;;5113612;28;20431;-60
2021/08/14 04:04:04;;;;;;;8.02;6.25;;;;;;;;;;5113574;28;20024;-61
2021/08/14 04:06:29;;;;;;;7.07;6.35;;;;;;;;;;5113353;28;20207;-60
2021/08/14 04:08:54;;;;;;;8.15;5.97;;;;;;;;;;5113418;28;20088;-60
2021/08/14 04:11:20;;;;;;;9.60;6.90;;;;;;;;;;5112989;28;20028;-61
2021/08/14 04:13:45;;;;;;;7.85;6.05;;;;;;;;;;5113610;28;20023;-61
2021/08/14 04:16:11;;;;;;;10.52;6.82;;;;;;;;;;5112208;28;20110;-61
2021/08/14 04:18:36;;;;;;;8.80;6.72;;;;;;;;;;5112182;28;20070;-61
2021/08/14 04:21:01;;;;;;;7.72;6.65;;;;;;;;;;5113208;28;20022;-60
2021/08/14 04:23:27;;;;;;;8.52;6.95;;;;;;;;;;5113281;28;20428;-61
2021/08/14 04:25:52;;;;;;;8.45;7.38;;;;;;;;;;5113302;28;20061;-61
2021/08/14 04:28:18;;;;;;;8.27;6.80;;;;;;;;;;5112109;28;20080;-61
2021/08/14 04:30:43;;;;;;;8.57;6.80;;;;;;;;;;5113363;28;20065;-61
2021/08/14 04:33:08;;;;;;;10.50;6.57;;;;;;;;;;5111953;28;20032;-60
2021/08/14 04:35:34;;;;;;;9.50;6.50;;;;;;;;;;5112861;28;20036;-61
2021/08/14 04:37:59;;;;;;;7.07;6.38;;;;;;;;;;5113246;28;20397;-60
2021/08/14 04:40:25;;;;;;;8.65;7.15;;;;;;;;;;5095043;28;20023;-60
2021/08/14 04:42:51;;;;;;;7.95;7.20;;;;;;;;;;5113237;28;20059;-61
2021/08/14 04:45:16;;;;;;;10.52;7.25;;;;;;;;;;5113312;28;20046;-60
2021/08/14 04:47:42;;;;;;;7.20;6.53;;;;;;;;;;5111983;28;20028;-61
2021/08/14 04:50:09;;;;;;;7.18;6.45;;;;;;;;;;5113143;28;20371;-60
2021/08/14 04:52:34;;;;;;;8.75;6.47;;;;;;;;;;5112958;28;20393;-61
2021/08/14 04:55:00;;;;;;;6.97;6.28;;;;;;;;;;5113054;28;20024;-61
2021/08/14 04:57:25;;;;;;;7.53;6.82;;;;;;;;;;5115545;28;20419;-61
2021/08/14 04:59:51;;;;;;;8.65;6.80;;;;;;;;;;5116781;28;20051;-61
2021/08/14 05:02:16;;;;;;;7.45;6.68;;;;;;;;;;5115524;28;20020;-61
2021/08/14 05:04:42;;;;;;;8.25;7.45;;;;;;;;;;5116652;28;20022;-61
2021/08/14 05:07:09;;;;;;;8.02;7.20;;;;;;;;;;5116641;28;20469;-61
2021/08/14 05:09:35;;;;;;;9.73;7.35;;;;;;;;;;5116562;28;20025;-60
2021/08/14 05:12:00;;;;;;;9.02;7.00;;;;;;;;;;5116452;28;20066;-61
2021/08/14 05:14:26;;;;;;;8.95;6.78;;;;;;;;;;5115025;28;20043;-61
2021/08/14 05:16:51;;;;;;;10.32;7.05;;;;;;;;;;5116307;28;20479;-60
2021/08/14 05:19:17;;;;;;;7.80;7.05;;;;;;;;;;5116329;28;20016;-61
2021/08/14 05:21:42;;;;;;;11.77;8.35;;;;;;;;;;5116444;28;20024;-61
2021/08/14 05:24:08;;;;;;;10.35;9.15;;;;;;;;;;5116377;28;20484;-61
2021/08/14 05:26:34;;;;;;;10.82;8.38;;;;;;;;;;5116275;27;20461;-61
2021/08/14 05:28:59;;;;;;;9.85;8.75;;;;;;;;;;5115006;28;20028;-60
2021/08/14 05:31:26;;;;;;;13.75;9.23;;;;;;;;;;5116141;28;20018;-60
2021/08/14 05:33:51;;;;;;;10.40;8.85;;;;;;;;;;5114749;28;20020;-60
2021/08/14 05:36:17;;;;;;;9.82;8.88;;;;;;;;;;5115755;28;20485;-61
2021/08/14 05:38:42;;;;;;;8.45;7.55;;;;;;;;;;5116017;28;20362;-60
2021/08/14 05:41:07;;;;;;;8.95;8.00;;;;;;;;;;5114909;28;20084;-61
2021/08/14 05:43:33;;;;;;;9.88;8.27;;;;;;;;;;5115913;28;20457;-61
2021/08/14 05:45:58;;;;;;;11.15;9.43;;;;;;;;;;5115753;28;20477;-61
2021/08/14 05:48:23;;;;;;;17.70;11.98;;;;;;;;;;5115660;28;20019;-61
2021/08/14 05:50:49;;;;;;;15.55;13.15;;;;;;;;;;5115940;28;20034;-61
2021/08/14 05:53:15;;;;;;;16.50;13.18;;;;;;;;;;5115871;28;20435;-61
2021/08/14 05:55:41;;;;;;;13.65;11.93;;;;;;;;;;5115714;28;20027;-61
2021/08/14 05:58:06;;;;;;;11.73;9.45;;;;;;;;;;5115620;27;20023;-61
2021/08/14 06:00:31;;;;;;;10.95;8.73;;;;;;;;;;5115874;28;20051;-61
2021/08/14 06:02:57;;;;;;;8.93;8.00;;;;;;;;;;5115639;28;20103;-61
2021/08/14 06:05:23;;;;;;;9.05;7.90;;;;;;;;;;5114137;28;20027;-61
2021/08/14 06:07:49;;;;;;;9.13;7.80;;;;;;;;;;5115031;28;20024;-61
2021/08/14 06:10:15;;;;;;;7.63;6.93;;;;;;;;;;5115406;28;20047;-60
2021/08/14 06:12:40;;;;;;;7.88;7.07;;;;;;;;;;5114065;28;20027;-61
2021/08/14 06:15:06;;;;;;;7.45;6.68;;;;;;;;;;5115297;27;20080;-60
2021/08/14 06:17:31;;;;;;;10.40;7.88;;;;;;;;;;5115335;28;20031;-61
2021/08/14 06:19:57;;;;;;;9.02;7.57;;;;;;;;;;5115165;28;20027;-61
2021/08/14 06:22:23;;;;;;;13.23;7.70;;;;;;;;;;5113951;28;20434;-60
2021/08/14 06:24:50;;;;;;;7.75;7.05;;;;;;;;;;5115081;28;20097;-60
2021/08/14 06:27:16;;;;;;;7.82;7.00;;;;;;;;;;5114999;28;20392;-61
2021/08/14 06:29:41;;;;;;;8.55;7.28;;;;;;;;;;5114928;28;20019;-60
2021/08/14 06:32:07;;;;;;;11.05;7.22;;;;;;;;;;5115040;28;20119;-61
2021/08/14 06:34:32;;;;;;;8.18;6.82;;;;;;;;;;5114925;28;20393;-60
2021/08/14 06:36:58;;;;;;;7.47;6.78;;;;;;;;;;5114699;28;20047;-61
2021/08/14 06:39:23;;;;;;;8.10;7.30;;;;;;;;;;5114752;28;20431;-60
2021/08/14 06:41:48;;;;;;;9.40;7.75;;;;;;;;;;5114823;28;20016;-61
2021/08/14 06:44:14;;;;;;;9.07;7.95;;;;;;;;;;5114700;28;20055;-60
2021/08/14 06:46:40;;;;;;;9.93;6.95;;;;;;;;;;5113406;28;20047;-61
2021/08/14 06:49:05;;;;;;;7.75;6.90;;;;;;;;;;5114710;28;20019;-60
2021/08/14 06:51:31;;;;;;;7.97;7.10;;;;;;;;;;5114524;28;20027;-61
2021/08/14 06:53:59;;;;;;;11.57;7.47;;;;;;;;;;5114392;28;20043;-61
2021/08/14 06:56:25;;;;;;;11.40;7.00;;;;;;;;;;5113277;28;20027;-60
2021/08/14 06:58:50;;;;;;;7.47;6.72;;;;;;;;;;5114500;28;20031;-60
2021/08/14 07:01:16;;;;;;;11.88;6.72;;;;;;;;;;5114344;28;20066;-61
2021/08/14 07:03:42;;;;;;;8.07;7.28;;;;;;;;;;5112984;28;20007;-60
2021/08/14 07:06:08;;;;;;;8.23;6.45;;;;;;;;;;5114268;28;20110;-61
2021/08/14 07:08:33;;;;;;;8.73;7.13;;;;;;;;;;5112958;28;20227;-60
2021/08/14 07:10:59;;;;;;;7.47;6.65;;;;;;;;;;5114301;28;20465;-60
2021/08/14 07:13:24;;;;;;;8.60;7.20;;;;;;;;;;5114304;28;20047;-60
2021/08/14 07:15:49;;;;;;;9.68;6.75;;;;;;;;;;5114077;28;20027;-61
2021/08/14 07:18:15;;;;;;;9.15;6.47;;;;;;;;;;5113801;28;20084;-61
2021/08/14 07:20:40;;;;;;;8.50;7.18;;;;;;;;;;5112303;28;20030;-61
2021/08/14 07:23:06;;;;;;;8.95;6.78;;;;;;;;;;5113948;28;20016;-60
2021/08/14 07:25:31;;;;;;;9.35;6.45;;;;;;;;;;5114017;28;20123;-61
2021/08/14 07:27:57;;;;;;;6.90;6.18;;;;;;;;;;5112843;28;20023;-61
2021/08/14 07:30:23;;;;;;;34.38;7.13;;;;;;;;;;5112284;28;20040;-61
2021/08/14 07:32:48;;;;;;;7.65;6.22;;;;;;;;;;5113925;28;20041;-61
2021/08/14 07:35:14;;;;;;;6.88;6.28;;;;;;;;;;5113587;28;20023;-61
2021/08/14 07:37:46;;;;;;;6.85;6.20;;;;;;;;;;5113830;28;20035;-61
2021/08/14 07:40:20;;;;;;;7.43;6.40;;;;;;;;;;5113775;28;20092;-61
2021/08/14 07:42:45;;;;;;;7.82;7.03;;;;;;;;;;5113841;28;20024;-61
2021/08/14 07:45:15;;;;;;;9.38;7.05;;;;;;;;;;5113693;28;20463;-61
2021/08/14 07:47:41;;;;;;;10.95;8.23;;;;;;;;;;5112322;28;20036;-61
2021/08/14 07:50:07;;;;;;;9.85;8.48;;;;;;;;;;5113737;28;20088;-61
2021/08/14 07:52:32;;;;;;;10.07;7.72;;;;;;;;;;5113718;28;20457;-61
2021/08/14 07:54:57;;;;;;;9.32;7.70;;;;;;;;;;5113702;28;20086;-61
2021/08/14 07:57:23;;;;;;;8.52;7.18;;;;;;;;;;5112336;28;20389;-60
2021/08/14 07:59:48;;;;;;;9.32;7.78;;;;;;;;;;5113540;28;20039;-60
2021/08/14 08:02:14;;;;;;;7.90;6.97;;;;;;;;;;5113511;28;20046;-61
2021/08/14 08:04:40;;;;;;;9.10;7.35;;;;;;;;;;5112391;28;20115;-61
2021/08/14 08:07:05;;;;;;;9.10;7.72;;;;;;;;;;5113495;28;20108;-61
2021/08/14 08:09:31;;;;;;;11.95;8.70;;;;;;;;;;5112201;28;20085;-61
2021/08/14 08:11:56;;;;;;;10.43;7.43;;;;;;;;;;5113399;28;20033;-60
2021/08/14 08:14:21;;;;;;;8.75;7.30;;;;;;;;;;5113310;28;20034;-61
2021/08/14 08:16:50;;;;;;;10.63;7.28;;;;;;;;;;5113337;28;20115;-60
2021/08/14 08:19:16;;;;;;;11.48;8.25;;;;;;;;;;5113377;28;20035;-61
2021/08/14 08:21:41;;;;;;;8.52;7.40;;;;;;;;;;5113455;28;20028;-60
2021/08/14 08:24:06;;;;;;;10.75;7.78;;;;;;;;;;5113407;28;20114;-61
2021/08/14 08:26:32;;;;;;;12.02;8.32;;;;;;;;;;5113339;28;20028;-61
2021/08/14 08:28:58;;;;;;;12.57;8.23;;;;;;;;;;5113410;28;20036;-61
2021/08/14 08:31:25;;;;;;;11.68;8.43;;;;;;;;;;5116135;28;20123;-60
2021/08/14 08:33:50;;;;;;;11.95;8.13;;;;;;;;;;5117284;28;20039;-61
2021/08/14 08:36:15;;;;;;;11.82;8.77;;;;;;;;;;5116736;28;20040;-60
2021/08/14 08:38:41;;;;;;;10.38;8.00;;;;;;;;;;5116999;28;20062;-60
2021/08/14 08:41:07;;;;;;;10.60;8.50;;;;;;;;;;5117052;28;20467;-61
2021/08/14 08:43:32;;;;;;;10.88;8.05;;;;;;;;;;5115745;28;20050;-60
2021/08/14 08:45:57;;;;;;;9.07;8.05;;;;;;;;;;5117151;28;20076;-60
2021/08/14 08:48:23;;;;;;;10.50;7.90;;;;;;;;;;5117120;28;20027;-60
2021/08/14 08:50:48;;;;;;;11.27;7.75;;;;;;;;;;5117038;28;20074;-61
2021/08/14 08:53:14;;;;;;;12.85;8.13;;;;;;;;;;5116952;28;20028;-60
2021/08/14 08:55:39;;;;;;;11.18;7.82;;;;;;;;;;5116799;28;20031;-61
2021/08/14 08:58:05;;;;;;;9.30;7.90;;;;;;;;;;5116568;28;20530;-60
2021/08/14 09:00:30;;;;;;;13.15;7.57;;;;;;;;;;5116924;28;20035;-61
2021/08/14 09:03:06;;;;;;;10.55;8.18;;;;;;;;;;5115540;28;20023;-61
2021/08/14 09:05:31;;;;;;;9.82;7.40;;;;;;;;;;5116636;28;20042;-61
2021/08/14 09:08:07;;;;;;;12.75;7.75;;;;;;;;;;5116595;28;20028;-61
2021/08/14 09:10:33;;;;;;;9.88;8.32;;;;;;;;;;5116592;28;20110;-61
2021/08/14 09:13:08;;;;;;;14.38;9.00;;;;;;;;;;5116467;28;20047;-60
2021/08/14 09:15:33;;;;;;;9.93;8.32;;;;;;;;;;5116324;28;20028;-61
2021/08/14 09:17:59;;;;;;;14.32;9.07;;;;;;;;;;5116381;28;20373;-61
2021/08/14 09:20:24;;;;;;;10.98;8.80;;;;;;;;;;5116264;28;20096;-60
2021/08/14 09:22:59;;;;;;;13.38;9.45;;;;;;;;;;5116352;28;20035;-61
2021/08/14 09:25:25;;;;;;;16.50;10.73;;;;;;;;;;5116218;28;20023;-61
2021/08/14 09:27:51;;;;;;;12.77;8.85;;;;;;;;;;5116243;28;20030;-61
2021/08/14 09:30:17;;;;;;;13.50;9.48;;;;;;;;;;5116185;28;20039;-61
2021/08/14 09:32:43;;;;;;;12.07;9.10;;;;;;;;;;5114916;28;20020;-61
2021/08/14 09:35:08;;;;;;;13.05;10.18;;;;;;;;;;5116131;28;20027;-61
2021/08/14 09:37:35;;;;;;;15.25;10.02;;;;;;;;;;5115847;28;20538;-60
2021/08/14 09:40:02;;;;;;;18.85;10.45;;;;;;;;;;5114698;28;20489;-61
2021/08/14 09:42:27;;;;;;;13.32;9.75;;;;;;;;;;5115152;28;20026;-61
2021/08/14 09:45:12;;;;;;;16.48;10.13;;;;;;;;;;5115882;28;20027;-61
2021/08/14 09:47:37;;;;;;;14.95;9.80;;;;;;;;;;5116012;28;20110;-61
2021/08/14 09:50:03;;;;;;;15.32;9.25;;;;;;;;;;5115937;28;20058;-61
2021/08/14 09:52:29;;;;;;;15.10;9.18;;;;;;;;;;5115839;28;20031;-60
2021/08/14 09:54:55;;;;;;;19.42;9.65;;;;;;;;;;5115789;28;20023;-60
2021/08/14 09:57:21;;;;;;;14.60;9.48;;;;;;;;;;5115695;28;20027;-60
2021/08/14 09:59:47;;;;;;;15.63;8.95;;;;;;;;;;5115712;28;20023;-61
2021/08/14 10:02:26;;;;;;;15.68;9.93;;;;;;;;;;5115660;27;20026;-60
2021/08/14 10:04:52;;;;;;;12.93;8.98;;;;;;;;;;5115681;28;20371;-61
2021/08/14 10:07:18;;;;;;;12.77;9.13;;;;;;;;;;5115497;28;20024;-61
2021/08/14 10:09:44;;;;;;;12.35;8.23;;;;;;;;;;5114145;28;20454;-60
2021/08/14 10:12:11;;;;;;;11.95;9.55;;;;;;;;;;5115423;28;20036;-60
2021/08/14 10:14:46;;;;;;;16.02;9.70;;;;;;;;;;5115427;28;20115;-61
2021/08/14 10:17:12;;;;;;;14.75;10.30;;;;;;;;;;5097070;28;20027;-60
2021/08/14 10:19:37;;;;;;;13.45;9.85;;;;;;;;;;5115225;28;20389;-61
2021/08/14 10:22:04;;;;;;;11.45;8.90;;;;;;;;;;5115231;28;20027;-61
2021/08/14 10:24:35;;;;;;;12.63;9.38;;;;;;;;;;5115105;28;20445;-61
2021/08/14 10:27:20;;;;;;;12.93;9.23;;;;;;;;;;5115142;28;20413;-60
2021/08/14 10:29:47;;;;;;;14.25;9.77;;;;;;;;;;5115138;28;20137;-61
2021/08/14 10:32:30;;;;;;;14.40;9.57;;;;;;;;;;5114944;28;20367;-61
2021/08/14 10:35:17;;;;;;;12.77;9.25;;;;;;;;;;5113438;28;20047;-60
2021/08/14 10:37:44;;;;;;;14.57;9.18;;;;;;;;;;5113761;28;20042;-60
2021/08/14 10:40:10;;;;;;;13.02;9.23;;;;;;;;;;5114906;28;20015;-60
2021/08/14 10:42:54;;;;;;;11.68;8.75;;;;;;;;;;5114808;28;20055;-61
2021/08/14 10:45:21;;;;;;;10.90;8.07;;;;;;;;;;5114802;28;20028;-60
2021/08/14 10:47:47;;;;;;;10.48;8.35;;;;;;;;;;5114823;28;20023;-60
2021/08/14 10:50:31;;;;;;;11.05;7.97;;;;;;;;;;5114700;28;20085;-60
2021/08/14 10:53:11;;;;;;;8.70;7.80;;;;;;;;;;5114464;28;20033;-61
2021/08/14 10:55:37;;;;;;;8.13;7.32;;;;;;;;;;5114040;28;20032;-61
2021/08/14 10:58:22;;;;;;;8.43;7.63;;;;;;;;;;5114291;28;20031;-60
2021/08/14 11:00:48;;;;;;;9.50;7.88;;;;;;;;;;5114405;28;20107;-61
2021/08/14 11:03:14;;;;;;;8.80;8.00;;;;;;;;;;5114363;28;20039;-61
2021/08/14 11:05:42;;;;;;;9.82;8.23;;;;;;;;;;5114270;27;20110;-61
2021/08/14 11:08:26;;;;;;;10.48;8.73;;;;;;;;;;5114245;28;20015;-60
2021/08/14 11:10:52;;;;;;;14.85;7.88;;;;;;;;;;5114121;28;20404;-60
2021/08/14 11:13:36;;;;;;;11.00;8.20;;;;;;;;;;5114101;28;20110;-61
2021/08/14 11:16:01;;;;;;;10.50;8.70;;;;;;;;;;5114271;28;20042;-61
2021/08/14 11:18:45;;;;;;;10.85;8.27;;;;;;;;;;5114034;28;20123;-61
2021/08/14 11:21:10;;;;;;;11.32;8.93;;;;;;;;;;5112610;28;20035;-61
2021/08/14 11:23:55;;;;;;;10.48;8.30;;;;;;;;;;5114040;28;20034;-61
2021/08/14 11:26:30;;;;;;;11.38;8.20;;;;;;;;;;5114114;28;20028;-60
2021/08/14 11:28:55;;;;;;;10.98;8.25;;;;;;;;;;5113965;28;20073;-61
2021/08/14 11:31:21;;;;;;;9.90;8.02;;;;;;;;;;5113901;28;20036;-61
2021/08/14 11:33:46;;;;;;;10.48;8.52;;;;;;;;;;5112490;28;20031;-60
2021/08/14 11:36:12;;;;;;;9.32;7.40;;;;;;;;;;5113298;28;20043;-61
2021/08/14 11:38:39;;;;;;;10.60;8.05;;;;;;;;;;5113710;28;20114;-61
2021/08/14 11:41:14;;;;;;;8.90;8.00;;;;;;;;;;5113770;28;20035;-61
2021/08/14 11:43:40;;;;;;;11.98;8.45;;;;;;;;;;5113717;28;20046;-61
2021/08/14 11:46:06;;;;;;;10.45;8.27;;;;;;;;;;5113808;28;20027;-60
2021/08/14 11:48:43;;;;;;;12.05;9.63;;;;;;;;;;5113814;28;20033;-61
2021/08/14 11:51:24;;;;;;;13.52;9.68;;;;;;;;;;5113621;28;20034;-61
2021/08/14 11:54:02;;;;;;;12.38;8.82;;;;;;;;;;5113547;28;20093;-61
2021/08/14 11:56:28;;;;;;;12.15;9.30;;;;;;;;;;5113758;28;20114;-61
2021/08/14 11:58:53;;;;;;;11.50;9.38;;;;;;;;;;5113549;28;20115;-61
2021/08/14 12:01:19;;;;;;;15.32;9.95;;;;;;;;;;5112454;28;20063;-61
2021/08/14 12:03:52;;;;;;;11.63;8.90;;;;;;;;;;5113544;28;20069;-60
2021/08/14 12:06:18;;;;;;;13.20;9.27;;;;;;;;;;5116370;28;20119;-61
2021/08/14 12:08:44;;;;;;;12.57;10.18;;;;;;;;;;5117783;28;20572;-61
2021/08/14 12:11:10;;;;;;;11.63;9.57;;;;;;;;;;5116516;28;20042;-60
2021/08/14 12:13:37;;;;;;;12.98;9.20;;;;;;;;;;5116465;28;20027;-61
2021/08/14 12:16:09;;;;;;;12.50;10.10;;;;;;;;;;5117539;28;20022;-61
2021/08/14 12:18:35;;;;;;;13.95;10.05;;;;;;;;;;5116360;28;20102;-60
2021/08/14 12:21:02;;;;;;;13.63;10.25;;;;;;;;;;5116263;28;20056;-60
2021/08/14 12:23:29;;;;;;;14.70;10.38;;;;;;;;;;5117543;28;20036;-61
2021/08/14 12:25:54;;;;;;;16.60;10.10;;;;;;;;;;5115620;28;20481;-61
2021/08/14 12:28:40;;;;;;;12.85;10.27;;;;;;;;;;5116187;28;20096;-61
2021/08/14 12:31:16;;;;;;;12.80;9.45;;;;;;;;;;5116917;28;20052;-60
2021/08/14 12:34:00;;;;;;;11.77;9.00;;;;;;;;;;5117217;28;20027;-61
2021/08/14 12:36:33;;;;;;;9.55;8.57;;;;;;;;;;5116732;28;20047;-61
2021/08/14 12:38:58;;;;;;;10.48;9.38;;;;;;;;;;5117194;28;20023;-61
2021/08/14 12:41:24;;;;;;;11.35;8.88;;;;;;;;;;5117187;28;20022;-61
2021/08/14 12:43:50;;;;;;;9.82;8.68;;;;;;;;;;5115893;28;20028;-60
2021/08/14 12:46:25;;;;;;;9.85;8.90;;;;;;;;;;5117061;28;20037;-60
2021/08/14 12:49:09;;;;;;;10.23;8.65;;;;;;;;;;5116984;28;20036;-61
2021/08/14 12:51:35;;;;;;;16.63;9.55;;;;;;;;;;5115757;28;20093;-61
2021/08/14 12:54:10;;;;;;;10.50;9.35;;;;;;;;;;5116945;28;20027;-61
2021/08/14 12:56:38;;;;;;;10.75;8.35;;;;;;;;;;5116938;28;20040;-60
2021/08/14 12:59:04;;;;;;;11.30;8.82;;;;;;;;;;5115726;28;20073;-61
2021/08/14 13:01:30;;;;;;;10.55;8.68;;;;;;;;;;5116946;28;20023;-61
2021/08/14 13:03:55;;;;;;;11.68;8.73;;;;;;;;;;5116769;28;20031;-61
2021/08/14 13:06:20;;;;;;;13.63;9.25;;;;;;;;;;5116845;28;20027;-60
2021/08/14 13:08:46;;;;;;;16.90;9.23;;;;;;;;;;5116680;28;20032;-61
2021/08/14 13:11:11;;;;;;;11.23;8.93;;;;;;;;;;5116531;28;20024;-61
2021/08/14 13:13:36;;;;;;;9.65;8.65;;;;;;;;;;5115308;28;20427;-61
2021/08/14 13:16:02;;;;;;;13.38;8.40;;;;;;;;;;5116359;28;20031;-61
2021/08/14 13:18:27;;;;;;;10.23;8.57;;;;;;;;;;5114904;28;20019;-61
2021/08/14 13:20:53;;;;;;;9.48;8.07;;;;;;;;;;5116642;28;20019;-61
2021/08/14 13:23:18;;;;;;;10.02;8.52;;;;;;;;;;5116371;28;20016;-61
2021/08/14 13:25:44;;;;;;;9.93;9.02;;;;;;;;;;5114963;28;20042;-61
2021/08/14 13:28:09;;;;;;;11.93;8.30;;;;;;;;;;5116343;28;20178;-61
2021/08/14 13:30:36;;;;;;;10.13;8.25;;;;;;;;;;5115071;28;20031;-61
2021/08/14 13:33:02;;;;;;;11.13;8.82;;;;;;;;;;5116275;28;20107;-61
2021/08/14 13:35:27;;;;;;;11.02;9.10;;;;;;;;;;5115822;28;20122;-61
2021/08/14 13:37:52;;;;;;;10.30;8.10;;;;;;;;;;5116036;28;20024;-61
2021/08/14 13:40:18;;;;;;;10.02;7.97;;;;;;;;;;5115949;28;20142;-61
2021/08/14 13:42:43;;;;;;;9.45;8.48;;;;;;;;;;5115917;28;20020;-60
2021/08/14 13:45:10;;;;;;;9.13;8.15;;;;;;;;;;5115914;28;20045;-61
2021/08/14 13:47:38;;;;;;;9.55;8.45;;;;;;;;;;5114536;28;20027;-60
2021/08/14 13:50:04;;;;;;;10.80;8.20;;;;;;;;;;5114692;28;20051;-61
2021/08/14 13:52:30;;;;;;;9.52;7.68;;;;;;;;;;5115760;28;20133;-60
2021/08/14 13:54:55;;;;;;;9.07;8.18;;;;;;;;;;5115701;28;20130;-61
2021/08/14 13:57:21;;;;;;;11.40;7.90;;;;;;;;;;5115529;28;20031;-61
2021/08/14 13:59:47;;;;;;;9.45;8.55;;;;;;;;;;5114416;28;20025;-61
2021/08/14 14:02:13;;;;;;;9.27;8.05;;;;;;;;;;5115688;28;20106;-61
2021/08/14 14:04:38;;;;;;;9.13;7.85;;;;;;;;;;5114336;28;20157;-61
2021/08/14 14:07:04;;;;;;;8.85;7.95;;;;;;;;;;5115488;28;20027;-61
2021/08/14 14:09:29;;;;;;;9.10;8.20;;;;;;;;;;5115468;28;20023;-61
2021/08/14 14:11:58;;;;;;;8.57;7.60;;;;;;;;;;5115426;28;20027;-61
2021/08/14 14:14:24;;;;;;;8.45;7.55;;;;;;;;;;5115149;28;20488;-61
2021/08/14 14:16:49;;;;;;;8.73;7.93;;;;;;;;;;5115404;28;20040;-60
2021/08/14 14:19:15;;;;;;;8.60;7.80;;;;;;;;;;5115185;28;20055;-61
2021/08/14 14:21:40;;;;;;;8.45;7.55;;;;;;;;;;5115188;28;20102;-61
2021/08/14 14:24:06;;;;;;;8.38;7.47;;;;;;;;;;5115110;28;20028;-61
2021/08/14 14:26:31;;;;;;;8.63;7.65;;;;;;;;;;5113929;28;20073;-61
2021/08/14 14:28:57;;;;;;;10.45;8.18;;;;;;;;;;5114903;28;20028;-61
2021/08/14 14:31:22;;;;;;;9.55;8.02;;;;;;;;;;5113857;28;20015;-61
2021/08/14 14:33:47;;;;;;;8.20;7.43;;;;;;;;;;5115089;28;20417;-61